Time;durP1;ratioP1;P1;durP2;ratioP2;P2;SDS_P1;SDS_P2;PMS_P1;PMS_P2;Temp;Humidity;BMP_temperature;BMP_pressure;BME280_temperature;BME280_humidity;BME280_pressure;Samples;Min_cycle;Max_cycle;Signal;HPM_P1;HPM_P2
2021/08/20 00:00:42;;;;;;;0.10;0.10;;;;;;;;;;5046847;28;20202;-66
2021/08/20 00:03:08;;;;;;;0.10;0.10;;;;;;;;;;5063637;28;20215;-66
2021/08/20 00:05:36;;;;;;;0.00;0.00;;;;;;;;;;5057184;28;20205;-66
2021/08/20 00:08:02;;;;;;;0.10;0.10;;;;;;;;;;5060557;28;20507;-66
2021/08/20 00:10:29;;;;;;;0.08;0.08;;;;;;;;;;5046561;28;20406;-66
2021/08/20 00:12:55;;;;;;;0.10;0.10;;;;;;;;;;5060478;28;20207;-66
2021/08/20 00:15:21;;;;;;;0.08;0.08;;;;;;;;;;5046132;28;20233;-66
2021/08/20 00:17:47;;;;;;;0.10;0.10;;;;;;;;;;5046224;28;20238;-66
2021/08/20 00:20:14;;;;;;;0.10;0.10;;;;;;;;;;5046237;28;20245;-66
2021/08/20 00:22:41;;;;;;;0.10;0.10;;;;;;;;;;5052826;28;20405;-66
2021/08/20 00:25:08;;;;;;;0.00;0.00;;;;;;;;;;5052191;28;20222;-67
2021/08/20 00:27:34;;;;;;;0.00;0.00;;;;;;;;;;5066216;28;20480;-67
2021/08/20 00:30:01;;;;;;;0.05;0.05;;;;;;;;;;5065454;28;20245;-65
2021/08/20 00:32:27;;;;;;;0.00;0.00;;;;;;;;;;5052675;28;20214;-66
2021/08/20 00:34:53;;;;;;;0.10;0.10;;;;;;;;;;5053496;28;20206;-66
2021/08/20 00:37:19;;;;;;;0.00;0.00;;;;;;;;;;5046107;28;20204;-65
2021/08/20 00:39:47;;;;;;;0.08;0.08;;;;;;;;;;5045653;28;20199;-66
2021/08/20 00:42:13;;;;;;;0.10;0.10;;;;;;;;;;5045908;28;20207;-66
2021/08/20 00:44:39;;;;;;;0.10;0.10;;;;;;;;;;5046198;28;20483;-67
2021/08/20 00:47:06;;;;;;;0.00;0.00;;;;;;;;;;5059850;28;20492;-66
2021/08/20 00:49:32;;;;;;;0.00;0.00;;;;;;;;;;5049463;28;20220;-65
2021/08/20 00:51:58;;;;;;;0.00;0.00;;;;;;;;;;5065396;28;20439;-67
2021/08/20 00:54:24;;;;;;;0.10;0.10;;;;;;;;;;5048886;28;20371;-67
2021/08/20 00:56:52;;;;;;;0.10;0.10;;;;;;;;;;5045414;28;20206;-66
2021/08/20 00:59:18;;;;;;;0.10;0.10;;;;;;;;;;5045708;28;20260;-66
2021/08/20 01:01:45;;;;;;;0.00;0.00;;;;;;;;;;5045634;28;20209;-65
2021/08/20 01:04:12;;;;;;;0.10;0.10;;;;;;;;;;5045602;28;20425;-66
2021/08/20 01:06:40;;;;;;;0.10;0.10;;;;;;;;;;5059645;28;20420;-65
2021/08/20 01:09:06;;;;;;;0.10;0.10;;;;;;;;;;5045417;28;20208;-67
2021/08/20 01:11:33;;;;;;;0.00;0.00;;;;;;;;;;5061821;28;20249;-65
2021/08/20 01:14:00;;;;;;;0.00;0.00;;;;;;;;;;5056529;28;20247;-65
2021/08/20 01:16:27;;;;;;;0.00;0.00;;;;;;;;;;5045169;28;20408;-66
2021/08/20 01:18:53;;;;;;;0.10;0.10;;;;;;;;;;5052333;28;20222;-66
2021/08/20 01:21:21;;;;;;;0.00;0.00;;;;;;;;;;5052080;28;20265;-66
2021/08/20 01:23:49;;;;;;;0.00;0.00;;;;;;;;;;5049870;28;20274;-66
2021/08/20 01:26:17;;;;;;;0.00;0.00;;;;;;;;;;5053469;28;20482;-67
2021/08/20 01:28:43;;;;;;;0.10;0.10;;;;;;;;;;5045224;28;20208;-66
2021/08/20 01:31:10;;;;;;;0.00;0.00;;;;;;;;;;5044318;28;20226;-65
2021/08/20 01:33:37;;;;;;;0.00;0.00;;;;;;;;;;5044939;28;20428;-66
2021/08/20 01:36:04;;;;;;;0.10;0.10;;;;;;;;;;5044848;28;20203;-66
2021/08/20 01:38:31;;;;;;;0.00;0.00;;;;;;;;;;5044984;28;20209;-67
2021/08/20 01:40:57;;;;;;;0.10;0.10;;;;;;;;;;5064326;28;20293;-66
2021/08/20 01:43:25;;;;;;;0.00;0.00;;;;;;;;;;5064484;28;20272;-66
2021/08/20 01:45:52;;;;;;;0.10;0.10;;;;;;;;;;5045277;28;20253;-66
2021/08/20 01:48:18;;;;;;;0.00;0.00;;;;;;;;;;5055755;28;20214;-66
2021/08/20 01:50:45;;;;;;;0.10;0.10;;;;;;;;;;5060442;28;20239;-67
2021/08/20 01:53:11;;;;;;;0.00;0.00;;;;;;;;;;5044878;28;20207;-66
2021/08/20 01:55:37;;;;;;;0.10;0.10;;;;;;;;;;5044357;28;20211;-67
2021/08/20 01:58:04;;;;;;;0.00;0.00;;;;;;;;;;5058363;28;20207;-67
2021/08/20 02:00:32;;;;;;;0.10;0.10;;;;;;;;;;5044524;28;20206;-66
2021/08/20 02:02:58;;;;;;;0.00;0.00;;;;;;;;;;5057349;28;20211;-66
2021/08/20 02:05:24;;;;;;;0.00;0.00;;;;;;;;;;5044299;28;20476;-66
2021/08/20 02:07:51;;;;;;;0.10;0.10;;;;;;;;;;5043940;28;20262;-68
2021/08/20 02:10:17;;;;;;;0.10;0.10;;;;;;;;;;5044129;28;20269;-66
2021/08/20 02:12:43;;;;;;;0.00;0.00;;;;;;;;;;5044139;28;20233;-66
2021/08/20 02:15:10;;;;;;;0.08;0.08;;;;;;;;;;5043871;28;20249;-66
2021/08/20 02:17:38;;;;;;;0.05;0.05;;;;;;;;;;5050221;28;20234;-66
2021/08/20 02:20:04;;;;;;;0.00;0.00;;;;;;;;;;5067440;28;20211;-67
2021/08/20 02:22:31;;;;;;;0.10;0.10;;;;;;;;;;5051079;28;20206;-67
2021/08/20 02:24:57;;;;;;;0.00;0.00;;;;;;;;;;5049127;28;20253;-66
2021/08/20 02:27:23;;;;;;;0.10;0.10;;;;;;;;;;5069221;28;20223;-66
2021/08/20 02:29:49;;;;;;;0.00;0.00;;;;;;;;;;5083544;28;20222;-67
2021/08/20 02:32:16;;;;;;;0.00;0.00;;;;;;;;;;5069882;28;20263;-66
2021/08/20 02:34:44;;;;;;;0.00;0.00;;;;;;;;;;5083001;28;20245;-66
2021/08/20 02:37:11;;;;;;;0.10;0.10;;;;;;;;;;5083622;28;20251;-67
2021/08/20 02:39:37;;;;;;;0.10;0.10;;;;;;;;;;5061480;28;20226;-66
2021/08/20 02:42:03;;;;;;;0.05;0.05;;;;;;;;;;5053722;28;20328;-65
2021/08/20 02:44:30;;;;;;;0.00;0.00;;;;;;;;;;5079720;28;20214;-66
2021/08/20 02:46:57;;;;;;;0.00;0.00;;;;;;;;;;5083044;28;20225;-66
2021/08/20 02:49:23;;;;;;;0.00;0.00;;;;;;;;;;5069009;28;20206;-65
2021/08/20 02:51:51;;;;;;;0.00;0.00;;;;;;;;;;5074029;28;20395;-66
2021/08/20 02:54:17;;;;;;;0.10;0.10;;;;;;;;;;5063367;28;20217;-66
2021/08/20 02:56:43;;;;;;;0.03;0.03;;;;;;;;;;5081452;28;20204;-66
2021/08/20 02:59:09;;;;;;;0.10;0.10;;;;;;;;;;5083392;28;20228;-66
2021/08/20 03:01:35;;;;;;;0.10;0.10;;;;;;;;;;5081046;28;20240;-66
2021/08/20 03:04:02;;;;;;;0.03;0.03;;;;;;;;;;5071758;28;20480;-72
2021/08/20 03:06:29;;;;;;;0.00;0.00;;;;;;;;;;5068679;28;20207;-73
2021/08/20 03:08:57;;;;;;;0.00;0.00;;;;;;;;;;5063304;28;20203;-73
2021/08/20 03:11:23;;;;;;;0.00;0.00;;;;;;;;;;5050056;28;20286;-73
2021/08/20 03:13:49;;;;;;;0.10;0.10;;;;;;;;;;5081526;28;20199;-73
2021/08/20 03:16:15;;;;;;;0.00;0.00;;;;;;;;;;5060990;28;20210;-73
2021/08/20 03:18:42;;;;;;;0.00;0.00;;;;;;;;;;5077503;28;20247;-73
2021/08/20 03:21:08;;;;;;;0.00;0.00;;;;;;;;;;5065177;28;20198;-73
2021/08/20 03:23:37;;;;;;;0.10;0.10;;;;;;;;;;5074227;28;20260;-72
2021/08/20 03:26:06;;;;;;;0.00;0.00;;;;;;;;;;5075393;28;20200;-73
2021/08/20 03:28:32;;;;;;;0.10;0.10;;;;;;;;;;5076258;28;20232;-73
2021/08/20 03:30:58;;;;;;;0.00;0.00;;;;;;;;;;5077674;28;20218;-73
2021/08/20 03:33:24;;;;;;;0.10;0.10;;;;;;;;;;5074638;28;20206;-71
2021/08/20 03:35:51;;;;;;;0.00;0.00;;;;;;;;;;5079909;28;20202;-73
2021/08/20 03:38:17;;;;;;;0.00;0.00;;;;;;;;;;5063372;28;20204;-73
2021/08/20 03:40:45;;;;;;;0.00;0.00;;;;;;;;;;5063146;28;20226;-72
2021/08/20 03:43:13;;;;;;;0.10;0.10;;;;;;;;;;5063337;28;20205;-72
2021/08/20 03:45:39;;;;;;;0.00;0.00;;;;;;;;;;5063026;28;20261;-71
2021/08/20 03:48:05;;;;;;;0.10;0.10;;;;;;;;;;5068702;28;20202;-72
2021/08/20 03:50:31;;;;;;;0.10;0.10;;;;;;;;;;5070118;28;20230;-72
2021/08/20 03:52:57;;;;;;;0.00;0.00;;;;;;;;;;5077142;28;20205;-72
2021/08/20 03:55:24;;;;;;;0.00;0.00;;;;;;;;;;5073283;28;20220;-73
2021/08/20 03:57:53;;;;;;;0.10;0.10;;;;;;;;;;5080253;28;20288;-73
2021/08/20 04:00:20;;;;;;;0.00;0.00;;;;;;;;;;5062765;28;20206;-72
2021/08/20 04:02:47;;;;;;;0.00;0.00;;;;;;;;;;5062938;28;20210;-72
2021/08/20 04:05:13;;;;;;;0.10;0.10;;;;;;;;;;5062975;28;20206;-72
2021/08/20 04:07:39;;;;;;;0.10;0.10;;;;;;;;;;5076272;28;20209;-73
2021/08/20 04:10:05;;;;;;;0.08;0.08;;;;;;;;;;5083016;28;20247;-72
2021/08/20 04:12:32;;;;;;;0.00;0.00;;;;;;;;;;5083087;28;20204;-72
2021/08/20 04:14:58;;;;;;;0.08;0.08;;;;;;;;;;5082987;28;20200;-73
2021/08/20 04:17:25;;;;;;;0.10;0.10;;;;;;;;;;5082602;28;20204;-73
2021/08/20 04:19:52;;;;;;;0.10;0.10;;;;;;;;;;5082802;28;20251;-72
2021/08/20 04:22:18;;;;;;;0.00;0.00;;;;;;;;;;5082562;28;20263;-72
2021/08/20 04:24:44;;;;;;;0.03;0.03;;;;;;;;;;5082984;28;20206;-72
2021/08/20 04:27:10;;;;;;;0.00;0.00;;;;;;;;;;5083173;28;20265;-71
2021/08/20 04:29:37;;;;;;;0.05;0.05;;;;;;;;;;5085285;28;20549;-71
2021/08/20 04:32:03;;;;;;;0.10;0.10;;;;;;;;;;5078124;28;20225;-70
2021/08/20 04:34:31;;;;;;;0.00;0.00;;;;;;;;;;5072462;28;20293;-72
2021/08/20 04:36:57;;;;;;;0.00;0.00;;;;;;;;;;5085607;28;20492;-71
2021/08/20 04:39:23;;;;;;;0.00;0.00;;;;;;;;;;5085583;28;20201;-73
2021/08/20 04:41:49;;;;;;;0.00;0.00;;;;;;;;;;5086074;28;20247;-71
2021/08/20 04:44:15;;;;;;;0.10;0.10;;;;;;;;;;5085555;28;20207;-71
2021/08/20 04:46:42;;;;;;;0.10;0.10;;;;;;;;;;5085935;28;20226;-71
2021/08/20 04:49:08;;;;;;;0.00;0.00;;;;;;;;;;5086266;28;20208;-71
2021/08/20 04:51:36;;;;;;;0.10;0.10;;;;;;;;;;5085596;28;20219;-72
2021/08/20 04:54:02;;;;;;;0.00;0.00;;;;;;;;;;5085363;28;20250;-72
2021/08/20 04:56:28;;;;;;;0.00;0.00;;;;;;;;;;5071135;28;20209;-71
2021/08/20 04:58:54;;;;;;;0.00;0.00;;;;;;;;;;5085779;28;20465;-71
2021/08/20 05:01:21;;;;;;;0.05;0.05;;;;;;;;;;5085581;28;20199;-71
2021/08/20 05:03:47;;;;;;;0.10;0.10;;;;;;;;;;5076382;28;20206;-72
2021/08/20 05:06:14;;;;;;;0.05;0.05;;;;;;;;;;5079705;28;20204;-71
2021/08/20 05:08:42;;;;;;;0.00;0.00;;;;;;;;;;5073042;28;20205;-70
2021/08/20 05:11:09;;;;;;;0.03;0.03;;;;;;;;;;5085531;28;20273;-70
2021/08/20 05:13:35;;;;;;;0.10;0.10;;;;;;;;;;5057419;28;20228;-70
2021/08/20 05:16:02;;;;;;;0.10;0.10;;;;;;;;;;5085069;28;20247;-71
2021/08/20 05:18:28;;;;;;;0.10;0.10;;;;;;;;;;5081181;28;20224;-71
2021/08/20 05:20:54;;;;;;;0.05;0.05;;;;;;;;;;5064327;28;20396;-70
2021/08/20 05:23:20;;;;;;;0.00;0.00;;;;;;;;;;5075301;28;20204;-71
2021/08/20 05:25:48;;;;;;;0.08;0.08;;;;;;;;;;5069494;28;20294;-72
2021/08/20 05:28:14;;;;;;;0.10;0.10;;;;;;;;;;5084686;28;20215;-71
2021/08/20 05:30:42;;;;;;;0.00;0.00;;;;;;;;;;5070671;28;20554;-73
2021/08/20 05:33:08;;;;;;;0.00;0.00;;;;;;;;;;5084769;28;20204;-72
2021/08/20 05:35:34;;;;;;;0.00;0.00;;;;;;;;;;5083403;28;20261;-72
2021/08/20 05:38:01;;;;;;;0.10;0.10;;;;;;;;;;5071772;28;20223;-72
2021/08/20 05:40:28;;;;;;;0.10;0.10;;;;;;;;;;5084066;28;20275;-72
2021/08/20 05:42:55;;;;;;;0.00;0.00;;;;;;;;;;5070490;28;20492;-72
2021/08/20 05:45:21;;;;;;;0.00;0.00;;;;;;;;;;5072752;28;20213;-73
2021/08/20 05:47:48;;;;;;;0.10;0.10;;;;;;;;;;5078510;28;20259;-72
2021/08/20 05:50:14;;;;;;;0.10;0.10;;;;;;;;;;5074168;28;20216;-73
2021/08/20 05:52:40;;;;;;;0.00;0.00;;;;;;;;;;5082653;28;20212;-72
2021/08/20 05:55:07;;;;;;;0.03;0.03;;;;;;;;;;5072613;28;20537;-72
2021/08/20 05:57:33;;;;;;;0.00;0.00;;;;;;;;;;5070215;28;20205;-72
2021/08/20 06:00:01;;;;;;;0.00;0.00;;;;;;;;;;5056804;28;20271;-72
2021/08/20 06:02:27;;;;;;;0.00;0.00;;;;;;;;;;5084069;28;20205;-72
2021/08/20 06:04:53;;;;;;;0.00;0.00;;;;;;;;;;5070471;28;20200;-72
2021/08/20 06:07:19;;;;;;;0.08;0.08;;;;;;;;;;5069055;28;20263;-73
2021/08/20 06:09:46;;;;;;;0.00;0.00;;;;;;;;;;5077799;28;20208;-73
2021/08/20 06:12:12;;;;;;;0.10;0.10;;;;;;;;;;5072779;28;20525;-73
2021/08/20 06:14:38;;;;;;;0.10;0.10;;;;;;;;;;5084200;28;20330;-73
2021/08/20 06:17:06;;;;;;;0.03;0.03;;;;;;;;;;5077474;28;20496;-73
2021/08/20 06:19:33;;;;;;;0.10;0.10;;;;;;;;;;5077649;28;20241;-72
2021/08/20 06:22:02;;;;;;;0.00;0.00;;;;;;;;;;5084778;28;20335;-72
2021/08/20 06:24:28;;;;;;;0.10;0.10;;;;;;;;;;5072918;28;20209;-72
2021/08/20 06:26:54;;;;;;;0.00;0.00;;;;;;;;;;5078094;28;20204;-72
2021/08/20 06:29:20;;;;;;;0.10;0.10;;;;;;;;;;5070273;28;20215;-71
2021/08/20 06:31:47;;;;;;;0.10;0.10;;;;;;;;;;5084408;28;20259;-73
2021/08/20 06:34:14;;;;;;;0.05;0.05;;;;;;;;;;5070197;28;20201;-72
2021/08/20 06:36:40;;;;;;;0.03;0.03;;;;;;;;;;5084211;28;20209;-72
2021/08/20 06:39:07;;;;;;;0.10;0.10;;;;;;;;;;5084049;28;20509;-70
2021/08/20 06:41:33;;;;;;;0.00;0.00;;;;;;;;;;5083811;28;20220;-73
2021/08/20 06:43:59;;;;;;;0.00;0.00;;;;;;;;;;5083599;28;20219;-69
2021/08/20 06:46:25;;;;;;;0.03;0.03;;;;;;;;;;5077060;28;20220;-70
2021/08/20 06:48:52;;;;;;;0.00;0.00;;;;;;;;;;5063797;28;20204;-71
2021/08/20 06:51:19;;;;;;;0.10;0.10;;;;;;;;;;5081371;28;20455;-70
2021/08/20 06:53:45;;;;;;;0.10;0.10;;;;;;;;;;5083867;28;20253;-70
2021/08/20 06:56:12;;;;;;;0.00;0.00;;;;;;;;;;5083571;28;20444;-71
2021/08/20 06:58:38;;;;;;;0.00;0.00;;;;;;;;;;5083194;28;20251;-70
2021/08/20 07:01:04;;;;;;;0.00;0.00;;;;;;;;;;5079289;28;20447;-68
2021/08/20 07:03:31;;;;;;;0.10;0.10;;;;;;;;;;5083638;28;20204;-70
2021/08/20 07:05:57;;;;;;;0.00;0.00;;;;;;;;;;5083346;28;20487;-70
2021/08/20 07:08:24;;;;;;;0.00;0.00;;;;;;;;;;5078186;28;20250;-69
2021/08/20 07:10:51;;;;;;;0.00;0.00;;;;;;;;;;5063641;28;20210;-70
2021/08/20 07:13:17;;;;;;;0.00;0.00;;;;;;;;;;5081236;28;20330;-71
2021/08/20 07:15:43;;;;;;;0.00;0.00;;;;;;;;;;5083487;28;20212;-70
2021/08/20 07:18:09;;;;;;;0.10;0.10;;;;;;;;;;5081623;28;20405;-70
2021/08/20 07:20:36;;;;;;;0.00;0.00;;;;;;;;;;5062938;28;20604;-70
2021/08/20 07:23:02;;;;;;;0.10;0.10;;;;;;;;;;5076853;28;20266;-72
2021/08/20 07:25:29;;;;;;;0.00;0.00;;;;;;;;;;5077186;28;20210;-70
2021/08/20 07:27:56;;;;;;;0.00;0.00;;;;;;;;;;5071527;28;20203;-70
2021/08/20 07:30:22;;;;;;;0.00;0.00;;;;;;;;;;5068707;28;20212;-69
2021/08/20 07:32:49;;;;;;;0.05;0.05;;;;;;;;;;5076773;28;20306;-71
2021/08/20 07:35:15;;;;;;;0.00;0.00;;;;;;;;;;5075621;28;20211;-70
2021/08/20 07:37:41;;;;;;;0.10;0.10;;;;;;;;;;5083005;28;20482;-71
2021/08/20 07:40:08;;;;;;;0.00;0.00;;;;;;;;;;5082880;28;20205;-71
2021/08/20 07:42:36;;;;;;;0.10;0.10;;;;;;;;;;5068825;28;20206;-70
2021/08/20 07:45:02;;;;;;;1.48;1.38;;;;;;;;;;5083151;28;20543;-70
2021/08/20 07:47:29;;;;;;;0.00;0.00;;;;;;;;;;5069016;28;20211;-70
2021/08/20 07:49:55;;;;;;;0.00;0.00;;;;;;;;;;5082983;28;20520;-70
2021/08/20 07:52:21;;;;;;;0.00;0.00;;;;;;;;;;5080774;28;20220;-70
2021/08/20 07:54:49;;;;;;;0.00;0.00;;;;;;;;;;5063660;28;20209;-70
2021/08/20 07:57:15;;;;;;;0.10;0.10;;;;;;;;;;5062761;28;20519;-70
2021/08/20 07:59:43;;;;;;;0.13;0.13;;;;;;;;;;5066239;28;20208;-70
2021/08/20 08:02:09;;;;;;;0.10;0.10;;;;;;;;;;5083857;28;20204;-69
2021/08/20 08:04:35;;;;;;;0.10;0.10;;;;;;;;;;5072579;28;20501;-69
2021/08/20 08:07:02;;;;;;;0.10;0.10;;;;;;;;;;5078739;28;20263;-70
2021/08/20 08:09:28;;;;;;;0.20;0.20;;;;;;;;;;5080632;28;20208;-69
2021/08/20 08:11:54;;;;;;;0.10;0.10;;;;;;;;;;5080207;28;20266;-70
2021/08/20 08:14:20;;;;;;;0.00;0.00;;;;;;;;;;5078618;28;20206;-71
2021/08/20 08:16:48;;;;;;;0.00;0.00;;;;;;;;;;5082634;28;20202;-70
2021/08/20 08:19:14;;;;;;;0.10;0.10;;;;;;;;;;5076846;28;20265;-71
2021/08/20 08:21:40;;;;;;;0.00;0.00;;;;;;;;;;5083913;28;20486;-72
2021/08/20 08:24:07;;;;;;;0.00;0.00;;;;;;;;;;5074560;28;20314;-70
2021/08/20 08:26:33;;;;;;;0.05;0.05;;;;;;;;;;5085753;28;20250;-71
2021/08/20 08:28:59;;;;;;;0.00;0.00;;;;;;;;;;5086127;28;20411;-70
2021/08/20 08:31:25;;;;;;;0.00;0.00;;;;;;;;;;5076757;28;20208;-70
2021/08/20 08:33:53;;;;;;;0.00;0.00;;;;;;;;;;5080337;28;20209;-70
2021/08/20 08:36:20;;;;;;;0.10;0.10;;;;;;;;;;5073206;28;20420;-72
2021/08/20 08:38:46;;;;;;;0.00;0.00;;;;;;;;;;5072549;28;20203;-69
2021/08/20 08:41:12;;;;;;;0.00;0.00;;;;;;;;;;5081119;28;20207;-71
2021/08/20 08:43:38;;;;;;;0.10;0.10;;;;;;;;;;5077506;28;20263;-70
2021/08/20 08:46:09;;;;;;;0.10;0.10;;;;;;;;;;5085538;28;20204;-70
2021/08/20 08:48:38;;;;;;;0.00;0.00;;;;;;;;;;5064835;28;20207;-71
2021/08/20 08:51:07;;;;;;;0.00;0.00;;;;;;;;;;5078474;28;20219;-70
2021/08/20 08:53:34;;;;;;;0.10;0.10;;;;;;;;;;5076617;28;20255;-70
2021/08/20 08:56:00;;;;;;;0.00;0.00;;;;;;;;;;5079652;28;20525;-70
2021/08/20 08:58:26;;;;;;;0.00;0.00;;;;;;;;;;5072390;28;20299;-71
2021/08/20 09:00:53;;;;;;;0.08;0.08;;;;;;;;;;5071761;28;20506;-71
2021/08/20 09:06:09;;;;;;;0.00;0.00;;;;;;;;;;5081831;28;20208;-74
2021/08/20 09:08:35;;;;;;;0.00;0.00;;;;;;;;;;5066184;28;20208;-74
2021/08/20 09:11:02;;;;;;;0.05;0.05;;;;;;;;;;5065424;28;20210;-74
2021/08/20 09:13:29;;;;;;;0.10;0.10;;;;;;;;;;5069957;28;20436;-74
2021/08/20 09:16:06;;;;;;;0.00;0.00;;;;;;;;;;5085065;28;20203;-74
2021/08/20 09:18:32;;;;;;;0.00;0.00;;;;;;;;;;5070803;28;20228;-73
2021/08/20 09:20:58;;;;;;;0.00;0.00;;;;;;;;;;5063474;28;20206;-76
2021/08/20 09:23:26;;;;;;;0.10;0.10;;;;;;;;;;5079121;28;20214;-74
2021/08/20 09:25:53;;;;;;;0.10;0.10;;;;;;;;;;5080298;28;20480;-75
2021/08/20 09:28:23;;;;;;;0.00;0.00;;;;;;;;;;5065650;28;20241;-73
2021/08/20 09:31:04;;;;;;;0.00;0.00;;;;;;;;;;5067599;28;20251;-75
2021/08/20 09:33:31;;;;;;;0.10;0.10;;;;;;;;;;5077329;28;20212;-76
2021/08/20 09:35:58;;;;;;;0.05;0.05;;;;;;;;;;5084768;28;20243;-74
2021/08/20 09:38:25;;;;;;;0.05;0.05;;;;;;;;;;5075016;28;20480;-75
2021/08/20 09:40:55;;;;;;;0.08;0.08;;;;;;;;;;5079131;28;20538;-74
2021/08/20 09:43:26;;;;;;;0.00;0.00;;;;;;;;;;5064834;28;20208;-75
2021/08/20 09:45:56;;;;;;;0.10;0.10;;;;;;;;;;5066400;28;20225;-75
2021/08/20 09:48:38;;;;;;;0.00;0.00;;;;;;;;;;5084586;28;20533;-75
2021/08/20 09:51:04;;;;;;;0.00;0.00;;;;;;;;;;5084423;28;20265;-75
2021/08/20 09:53:31;;;;;;;0.10;0.10;;;;;;;;;;5084525;28;20269;-75
2021/08/20 09:56:00;;;;;;;0.10;0.10;;;;;;;;;;5083601;28;20208;-75
2021/08/20 09:58:28;;;;;;;0.10;0.10;;;;;;;;;;5071944;28;20231;-75
2021/08/20 10:00:54;;;;;;;0.10;0.10;;;;;;;;;;5084492;28;20540;-73
2021/08/20 10:03:20;;;;;;;0.10;0.10;;;;;;;;;;5084223;28;20204;-75
2021/08/20 10:05:49;;;;;;;0.00;0.00;;;;;;;;;;5084173;28;20226;-74
2021/08/20 10:08:16;;;;;;;0.05;0.05;;;;;;;;;;5080386;28;20208;-74
2021/08/20 10:10:45;;;;;;;0.00;0.00;;;;;;;;;;5074449;28;20200;-74
2021/08/20 10:13:14;;;;;;;0.00;0.00;;;;;;;;;;5084024;28;20252;-76
2021/08/20 10:15:41;;;;;;;0.00;0.00;;;;;;;;;;5084381;28;20266;-74
2021/08/20 10:18:07;;;;;;;0.00;0.00;;;;;;;;;;5068904;28;20227;-73
2021/08/20 10:20:34;;;;;;;0.00;0.00;;;;;;;;;;5063943;28;20197;-74
2021/08/20 10:23:00;;;;;;;0.08;0.08;;;;;;;;;;5063877;28;20237;-74
2021/08/20 10:25:27;;;;;;;0.03;0.03;;;;;;;;;;5065386;28;20236;-74
2021/08/20 10:27:55;;;;;;;0.10;0.10;;;;;;;;;;5076315;28;20326;-74
2021/08/20 10:30:21;;;;;;;0.10;0.10;;;;;;;;;;5077602;28;20255;-75
2021/08/20 10:33:05;;;;;;;0.03;0.03;;;;;;;;;;5056051;28;20438;-74
2021/08/20 10:35:50;;;;;;;0.00;0.00;;;;;;;;;;5069697;28;20203;-74
2021/08/20 10:38:26;;;;;;;0.10;0.10;;;;;;;;;;5074835;28;20250;-75
2021/08/20 10:41:06;;;;;;;0.00;0.00;;;;;;;;;;5080408;28;20551;-74
2021/08/20 10:43:50;;;;;;;0.10;0.10;;;;;;;;;;5083431;28;20252;-74
2021/08/20 10:46:36;;;;;;;0.00;0.00;;;;;;;;;;5083684;28;20208;-75
2021/08/20 10:49:20;;;;;;;0.00;0.00;;;;;;;;;;5083710;28;20431;-74
2021/08/20 10:51:59;;;;;;;0.10;0.10;;;;;;;;;;5060018;28;20275;-75
2021/08/20 10:54:41;;;;;;;0.00;0.00;;;;;;;;;;5083763;28;20380;-74
2021/08/20 10:57:08;;;;;;;0.00;0.00;;;;;;;;;;5070625;28;20258;-74
2021/08/20 10:59:49;;;;;;;0.00;0.00;;;;;;;;;;5080797;28;20206;-76
2021/08/20 11:02:33;;;;;;;0.05;0.05;;;;;;;;;;5063114;28;20273;-74
2021/08/20 11:05:02;;;;;;;0.00;0.00;;;;;;;;;;5066958;28;20270;-74
2021/08/20 11:07:43;;;;;;;0.00;0.00;;;;;;;;;;5075258;28;20281;-74
2021/08/20 11:10:24;;;;;;;0.00;0.00;;;;;;;;;;5077561;28;20248;-75
2021/08/20 11:12:59;;;;;;;0.10;0.10;;;;;;;;;;5049088;28;20277;-75
2021/08/20 11:15:42;;;;;;;0.00;0.00;;;;;;;;;;5057437;28;20485;-75
2021/08/20 11:18:08;;;;;;;0.00;0.00;;;;;;;;;;5082984;28;20272;-75
2021/08/20 11:20:37;;;;;;;0.08;0.08;;;;;;;;;;5082977;28;20249;-75
2021/08/20 11:23:13;;;;;;;0.10;0.10;;;;;;;;;;5083213;28;20223;-75
2021/08/20 11:25:39;;;;;;;0.00;0.00;;;;;;;;;;5057743;28;20202;-75
2021/08/20 11:28:07;;;;;;;0.00;0.00;;;;;;;;;;5083222;28;20203;-75
2021/08/20 11:30:35;;;;;;;0.03;0.03;;;;;;;;;;5083070;28;20498;-75
2021/08/20 11:33:07;;;;;;;0.00;0.00;;;;;;;;;;5083090;28;20533;-75
2021/08/20 11:35:34;;;;;;;0.00;0.00;;;;;;;;;;5082085;28;20202;-74
2021/08/20 11:38:01;;;;;;;0.10;0.10;;;;;;;;;;5065654;28;20246;-75
2021/08/20 11:40:28;;;;;;;0.00;0.00;;;;;;;;;;5080408;28;20207;-75
2021/08/20 11:43:07;;;;;;;0.00;0.00;;;;;;;;;;5076453;28;20199;-75
2021/08/20 11:45:34;;;;;;;0.00;0.00;;;;;;;;;;5073342;28;20375;-75
2021/08/20 11:48:00;;;;;;;0.08;0.08;;;;;;;;;;5087233;28;20501;-75
2021/08/20 11:50:26;;;;;;;0.00;0.00;;;;;;;;;;5075402;28;20216;-75
2021/08/20 11:52:53;;;;;;;0.03;0.03;;;;;;;;;;5084502;28;20554;-74
2021/08/20 11:55:20;;;;;;;0.00;0.00;;;;;;;;;;5086914;28;20203;-75
2021/08/20 11:57:47;;;;;;;0.00;0.00;;;;;;;;;;5072513;28;20349;-75
2021/08/20 12:00:14;;;;;;;0.00;0.00;;;;;;;;;;5087073;28;20253;-75
2021/08/20 12:02:40;;;;;;;0.08;0.08;;;;;;;;;;5086443;28;20199;-69
2021/08/20 12:05:16;;;;;;;0.10;0.10;;;;;;;;;;5086789;28;20200;-75
2021/08/20 12:07:42;;;;;;;0.00;0.00;;;;;;;;;;5086747;28;20305;-75
2021/08/20 12:10:10;;;;;;;0.05;0.05;;;;;;;;;;5081215;28;20224;-75
2021/08/20 12:12:39;;;;;;;0.10;0.10;;;;;;;;;;5078411;28;20203;-75
2021/08/20 12:15:05;;;;;;;0.00;0.00;;;;;;;;;;5082639;28;20245;-75
2021/08/20 12:17:33;;;;;;;0.10;0.10;;;;;;;;;;5076842;28;20273;-75
2021/08/20 12:20:00;;;;;;;0.00;0.00;;;;;;;;;;5086357;28;20414;-75
2021/08/20 12:22:34;;;;;;;0.00;0.00;;;;;;;;;;5077216;28;20204;-76
2021/08/20 12:25:00;;;;;;;0.00;0.00;;;;;;;;;;5068276;28;20541;-75
2021/08/20 12:27:27;;;;;;;0.00;0.00;;;;;;;;;;5086331;28;20421;-75
2021/08/20 12:30:08;;;;;;;0.10;0.10;;;;;;;;;;5086089;28;20207;-75
2021/08/20 12:32:36;;;;;;;0.00;0.00;;;;;;;;;;5085865;28;20206;-75
2021/08/20 12:35:03;;;;;;;0.00;0.00;;;;;;;;;;5086345;28;20380;-76
2021/08/20 12:37:30;;;;;;;0.03;0.03;;;;;;;;;;5083499;28;20213;-75
2021/08/20 12:40:03;;;;;;;0.00;0.00;;;;;;;;;;5075017;28;20210;-75
2021/08/20 12:42:29;;;;;;;0.10;0.10;;;;;;;;;;5071962;28;20210;-75
2021/08/20 12:45:06;;;;;;;0.00;0.00;;;;;;;;;;5086622;28;20199;-75
2021/08/20 12:47:33;;;;;;;1.35;1.35;;;;;;;;;;5071995;28;20441;-75
2021/08/20 12:50:05;;;;;;;0.10;0.10;;;;;;;;;;5076694;28;20218;-75
2021/08/20 12:52:31;;;;;;;0.00;0.00;;;;;;;;;;5080325;28;20248;-75
2021/08/20 12:54:57;;;;;;;0.15;0.15;;;;;;;;;;5079462;28;20226;-75
2021/08/20 12:57:24;;;;;;;0.10;0.10;;;;;;;;;;5078771;28;20203;-76
2021/08/20 12:59:59;;;;;;;0.08;0.08;;;;;;;;;;5085615;28;20199;-75
2021/08/20 13:02:25;;;;;;;0.10;0.10;;;;;;;;;;5085990;28;20198;-75
2021/08/20 13:04:52;;;;;;;0.00;0.00;;;;;;;;;;5081328;28;20204;-75
2021/08/20 13:07:19;;;;;;;0.10;0.10;;;;;;;;;;5065883;28;20212;-75
2021/08/20 13:09:45;;;;;;;0.00;0.00;;;;;;;;;;5065617;28;20525;-75
2021/08/20 13:12:11;;;;;;;0.10;0.10;;;;;;;;;;5065493;28;20208;-77
2021/08/20 13:14:37;;;;;;;0.00;0.00;;;;;;;;;;5080133;28;20223;-73
2021/08/20 13:17:04;;;;;;;0.00;0.00;;;;;;;;;;5085643;28;20199;-75
2021/08/20 13:19:30;;;;;;;0.10;0.10;;;;;;;;;;5086043;28;20302;-75
2021/08/20 13:21:57;;;;;;;0.00;0.00;;;;;;;;;;5057530;28;20487;-77
2021/08/20 13:24:24;;;;;;;0.10;0.10;;;;;;;;;;5085204;28;20398;-74
2021/08/20 13:26:50;;;;;;;0.10;0.10;;;;;;;;;;5063912;28;20199;-76
2021/08/20 13:29:16;;;;;;;0.03;0.03;;;;;;;;;;5084218;28;20207;-75
2021/08/20 13:31:42;;;;;;;0.05;0.05;;;;;;;;;;5085156;28;20368;-76
2021/08/20 13:34:09;;;;;;;0.00;0.00;;;;;;;;;;5085023;28;20297;-76
2021/08/20 13:36:35;;;;;;;0.10;0.10;;;;;;;;;;5085009;28;20206;-75
2021/08/20 13:39:03;;;;;;;0.10;0.10;;;;;;;;;;5085188;28;20256;-75
2021/08/20 13:41:32;;;;;;;0.08;0.08;;;;;;;;;;5078259;28;20493;-76
2021/08/20 13:43:59;;;;;;;0.00;0.00;;;;;;;;;;5084668;28;20501;-75
2021/08/20 13:46:25;;;;;;;0.00;0.00;;;;;;;;;;5085189;28;20478;-76
2021/08/20 13:48:52;;;;;;;1.17;1.17;;;;;;;;;;5085171;28;20210;-76
2021/08/20 13:51:18;;;;;;;0.00;0.00;;;;;;;;;;5075395;28;20231;-75
2021/08/20 13:53:44;;;;;;;0.10;0.10;;;;;;;;;;5065454;28;20552;-76
2021/08/20 13:56:12;;;;;;;0.00;0.00;;;;;;;;;;5084503;28;20206;-76
2021/08/20 13:58:38;;;;;;;0.10;0.10;;;;;;;;;;5083943;28;20233;-76
2021/08/20 14:01:04;;;;;;;0.15;0.15;;;;;;;;;;5084137;28;20276;-75
2021/08/20 14:03:31;;;;;;;0.05;0.05;;;;;;;;;;5084131;28;20260;-75
2021/08/20 14:05:57;;;;;;;0.00;0.00;;;;;;;;;;5084042;28;20400;-75
2021/08/20 14:08:23;;;;;;;0.00;0.00;;;;;;;;;;5070231;28;20202;-74
2021/08/20 14:10:49;;;;;;;0.00;0.00;;;;;;;;;;5072736;28;20224;-75
2021/08/20 14:13:17;;;;;;;0.00;0.00;;;;;;;;;;5081578;28;20206;-75
2021/08/20 14:15:44;;;;;;;0.05;0.05;;;;;;;;;;5084071;28;20248;-74
2021/08/20 14:18:10;;;;;;;0.00;0.00;;;;;;;;;;5084265;28;20271;-75
2021/08/20 14:20:37;;;;;;;0.00;0.00;;;;;;;;;;5084441;28;20212;-75
2021/08/20 14:23:04;;;;;;;0.00;0.00;;;;;;;;;;5070495;28;20402;-75
2021/08/20 14:25:30;;;;;;;0.00;0.00;;;;;;;;;;5070497;28;20206;-76
2021/08/20 14:27:56;;;;;;;0.00;0.00;;;;;;;;;;5084616;28;20206;-74
2021/08/20 14:30:24;;;;;;;0.10;0.10;;;;;;;;;;5070028;28;20494;-75
2021/08/20 14:32:50;;;;;;;0.00;0.00;;;;;;;;;;5058350;28;20258;-75
2021/08/20 14:35:17;;;;;;;0.10;0.10;;;;;;;;;;5069487;28;20248;-74
2021/08/20 14:37:43;;;;;;;0.10;0.10;;;;;;;;;;5079550;28;20249;-75
2021/08/20 14:40:09;;;;;;;0.00;0.00;;;;;;;;;;5064173;28;20209;-74
2021/08/20 14:42:36;;;;;;;0.00;0.00;;;;;;;;;;5066795;28;20396;-75
2021/08/20 14:45:02;;;;;;;0.00;0.00;;;;;;;;;;5084034;28;20218;-76
2021/08/20 14:47:30;;;;;;;0.00;0.00;;;;;;;;;;5068893;28;20212;-74